Terminal Aerodrome Forecast
Issued by NWS Pittsburgh, PA

Home | Current Version | Previous Version | Text Only | Print | Product List | Glossary On
Versions: 1 2 3 4 5 6 7 8 9 10 11 12 13 14 15 16 17 18 19 20 21 22 23
213
FTUS41 KPBZ 231504 AAA
TAFPIT
TAF AMD
KPIT 231504Z 2315/2418 14012KT P6SM BKN060
     FM231600 16015G22KT P6SM -SHRA OVC050
     FM232200 16012G20KT 4SM RA OVC025
     FM240700 20010G18KT P6SM OVC010
     FM241500 19012G18KT P6SM BKN035=

USA.gov is the U.S. government's official web portal to all federal, state and local government web resources and services.